createdAt,value
2018-08-18T00:00:10.240Z,15.09
2018-08-18T00:01:10.117Z,15.05
2018-08-18T00:02:10.262Z,15.05
2018-08-18T00:03:10.068Z,15.03
2018-08-18T00:04:58.889Z,15.04
2018-08-18T00:05:58.838Z,14.94
2018-08-18T00:06:58.822Z,15.01
2018-08-18T00:07:58.785Z,14.98
2018-08-18T00:08:58.809Z,15.07
2018-08-18T00:09:58.785Z,15.04
2018-08-18T00:10:58.722Z,15.05
2018-08-18T00:11:58.782Z,14.95
2018-08-18T00:12:58.664Z,15.03
2018-08-18T00:13:58.685Z,14.95
2018-08-18T00:14:58.625Z,14.94
2018-08-18T00:15:58.707Z,14.86
2018-08-18T00:16:58.601Z,14.95
2018-08-18T00:17:58.610Z,14.93
2018-08-18T00:18:58.520Z,14.85
2018-08-18T00:19:58.527Z,14.97
2018-08-18T00:20:58.473Z,14.94
2018-08-18T00:21:58.548Z,14.93
2018-08-18T00:22:58.422Z,14.83
2018-08-18T00:23:58.406Z,14.93
2018-08-18T00:24:58.374Z,14.83
2018-08-18T00:25:58.458Z,14.91
2018-08-18T00:26:58.329Z,14.87
2018-08-18T00:27:58.477Z,14.91
2018-08-18T00:28:58.288Z,14.86
2018-08-18T00:29:58.292Z,14.83
2018-08-18T00:30:58.227Z,14.80
2018-08-18T00:31:58.328Z,14.83
2018-08-18T00:32:58.204Z,14.90
2018-08-18T00:33:58.210Z,14.82
2018-08-18T00:34:58.145Z,14.83
2018-08-18T00:35:58.209Z,14.87
2018-08-18T00:36:58.091Z,14.82
2018-08-18T00:37:58.127Z,14.85
2018-08-18T00:38:58.040Z,14.79
2018-08-18T00:39:58.037Z,14.71
2018-08-18T00:40:58.101Z,14.69
2018-08-18T00:41:58.050Z,14.71
2018-08-18T00:42:57.944Z,14.69
2018-08-18T00:43:57.963Z,14.69
2018-08-18T00:44:57.902Z,14.66
2018-08-18T00:45:59.919Z,14.63
2018-08-18T00:46:57.859Z,14.61
2018-08-18T00:47:57.885Z,14.57
2018-08-18T00:48:57.804Z,14.59
2018-08-18T00:49:57.891Z,14.59
2018-08-18T00:50:57.750Z,14.59
2018-08-18T00:51:57.743Z,14.54
2018-08-18T00:52:57.812Z,14.49
2018-08-18T00:53:57.681Z,14.48
2018-08-18T00:54:57.759Z,14.52
2018-08-18T00:55:57.631Z,14.41
2018-08-18T00:56:57.641Z,14.44
2018-08-18T00:57:57.602Z,14.39
2018-08-18T00:58:57.651Z,14.39
2018-08-18T00:59:57.532Z,14.35
2018-08-18T01:00:57.577Z,14.30
2018-08-18T01:01:57.501Z,14.38
2018-08-18T01:02:57.623Z,14.31
2018-08-18T01:03:57.479Z,14.31
2018-08-18T01:04:57.482Z,14.36
2018-08-18T01:05:57.393Z,14.34
2018-08-18T01:06:57.499Z,14.31
2018-08-18T01:07:57.362Z,14.27
2018-08-18T01:08:57.418Z,14.34
2018-08-18T01:09:57.299Z,14.23
2018-08-18T01:10:57.345Z,14.30
2018-08-18T01:11:57.344Z,14.23
2018-08-18T01:12:57.419Z,14.29
2018-08-18T01:13:57.254Z,14.26
2018-08-18T01:14:57.426Z,14.34
2018-08-18T01:15:57.152Z,14.30
2018-08-18T01:16:57.132Z,14.30
2018-08-18T01:17:57.176Z,14.27
2018-08-18T01:18:57.084Z,14.29
2018-08-18T01:19:57.211Z,14.36
2018-08-18T01:20:57.037Z,14.35
2018-08-18T01:21:57.110Z,14.30
2018-08-18T01:22:56.997Z,14.34
2018-08-18T01:23:57.022Z,14.20
2018-08-18T01:24:56.959Z,14.21
2018-08-18T01:25:57.006Z,14.21
2018-08-18T01:26:56.952Z,14.19
2018-08-18T01:27:56.933Z,14.29
2018-08-18T01:28:56.871Z,14.19
2018-08-18T01:29:56.939Z,14.11
2018-08-18T01:30:56.806Z,14.21
2018-08-18T01:31:56.835Z,14.23
2018-08-18T01:32:56.743Z,14.20
2018-08-18T01:33:56.754Z,14.11
2018-08-18T01:34:56.701Z,14.09
2018-08-18T01:35:56.752Z,14.16
2018-08-18T01:36:56.653Z,14.19
2018-08-18T01:37:56.693Z,14.09
2018-08-18T01:38:56.606Z,14.16
2018-08-18T01:39:56.685Z,14.06
2018-08-18T01:40:56.591Z,14.21
2018-08-18T01:42:42.584Z,14.24
2018-08-18T01:43:42.558Z,14.20
2018-08-18T01:44:42.589Z,14.09
2018-08-18T01:45:42.466Z,14.19
2018-08-18T01:46:42.508Z,14.13
2018-08-18T01:47:42.417Z,14.24
2018-08-18T01:48:42.515Z,14.13
2018-08-18T01:49:42.388Z,14.12
2018-08-18T01:50:42.431Z,14.13
2018-08-18T01:51:42.340Z,14.11
2018-08-18T01:52:42.334Z,14.13
2018-08-18T01:53:42.267Z,13.99
2018-08-18T01:54:42.340Z,14.01
2018-08-18T01:55:42.226Z,14.01
2018-08-18T01:56:42.254Z,13.90
2018-08-18T01:57:42.175Z,13.91
2018-08-18T01:58:42.166Z,13.94
2018-08-18T01:59:42.132Z,13.93
2018-08-18T02:00:42.186Z,13.86
2018-08-18T02:01:42.078Z,13.86
2018-08-18T02:02:42.093Z,13.87
2018-08-18T02:03:42.040Z,13.72
2018-08-18T02:04:42.103Z,13.72
2018-08-18T02:05:41.982Z,13.73
2018-08-18T02:06:42.025Z,13.72
2018-08-18T02:07:41.930Z,13.73
2018-08-18T02:08:41.919Z,13.68
2018-08-18T02:09:41.892Z,13.72
2018-08-18T02:10:41.930Z,13.66
2018-08-18T02:11:41.835Z,13.65
2018-08-18T02:12:41.897Z,13.66
2018-08-18T02:13:41.802Z,13.62
2018-08-18T02:14:41.873Z,13.66
2018-08-18T02:15:41.731Z,13.66
2018-08-18T02:16:41.785Z,13.61
2018-08-18T02:17:41.694Z,13.59
2018-08-18T02:18:41.689Z,13.59
2018-08-18T02:19:41.639Z,13.48
2018-08-18T02:20:41.696Z,13.53
2018-08-18T02:21:41.590Z,13.57
2018-08-18T02:22:41.599Z,13.53
2018-08-18T02:23:41.542Z,13.57
2018-08-18T02:24:41.623Z,13.55
2018-08-18T02:25:41.483Z,13.54
2018-08-18T02:26:41.524Z,13.55
2018-08-18T02:27:41.442Z,13.51
2018-08-18T02:28:41.434Z,13.51
2018-08-18T02:29:41.388Z,13.48
2018-08-18T02:30:41.448Z,13.48
2018-08-18T02:31:41.352Z,13.43
2018-08-18T02:32:41.355Z,13.32
2018-08-18T02:33:41.307Z,13.41
2018-08-18T02:34:41.374Z,13.38
2018-08-18T02:35:41.249Z,13.41
2018-08-18T02:36:41.280Z,13.36
2018-08-18T02:37:41.223Z,13.29
2018-08-18T02:38:41.195Z,13.41
2018-08-18T02:39:41.142Z,13.38
2018-08-18T02:40:41.142Z,13.43
2018-08-18T02:41:41.104Z,13.46
2018-08-18T02:42:41.083Z,13.32
2018-08-18T02:43:41.050Z,13.36
2018-08-18T02:44:41.026Z,13.44
2018-08-18T02:45:41.008Z,13.54
2018-08-18T02:46:40.980Z,13.50
2018-08-18T02:47:40.960Z,13.55
2018-08-18T02:48:40.933Z,13.54
2018-08-18T02:49:40.913Z,13.54
2018-08-18T02:50:40.885Z,13.57
2018-08-18T02:51:40.857Z,13.59
2018-08-18T02:52:40.864Z,13.48
2018-08-18T02:53:40.816Z,13.47
2018-08-18T02:54:40.788Z,13.59
2018-08-18T02:55:40.761Z,13.57
2018-08-18T02:56:40.760Z,13.54
2018-08-18T02:57:40.716Z,13.48
2018-08-18T02:58:40.701Z,13.51
2018-08-18T02:59:40.666Z,13.50
2018-08-18T03:00:40.670Z,13.48
2018-08-18T03:01:40.625Z,13.50
2018-08-18T03:02:40.667Z,13.50
2018-08-18T03:03:40.570Z,13.50
2018-08-18T03:04:40.587Z,13.54
2018-08-18T03:06:26.608Z,13.53
2018-08-18T03:07:26.537Z,13.39
2018-08-18T03:08:26.583Z,13.43
2018-08-18T03:09:26.523Z,13.48
2018-08-18T03:10:26.555Z,13.50
2018-08-18T03:11:26.450Z,13.41
2018-08-18T03:12:27.495Z,13.39
2018-08-18T03:13:26.405Z,13.38
2018-08-18T03:14:26.892Z,13.39
2018-08-18T03:15:26.377Z,13.41
2018-08-18T03:16:26.394Z,13.35
2018-08-18T03:17:26.299Z,13.32
2018-08-18T03:18:26.308Z,13.44
2018-08-18T03:19:26.249Z,13.35
2018-08-18T03:20:26.322Z,13.39
2018-08-18T03:21:26.201Z,13.38
2018-08-18T03:22:27.261Z,13.38
2018-08-18T03:23:26.176Z,13.41
2018-08-18T03:24:26.243Z,13.46
2018-08-18T03:25:26.107Z,13.41
2018-08-18T03:26:26.152Z,13.50
2018-08-18T03:27:26.059Z,13.38
2018-08-18T03:28:26.063Z,13.39
2018-08-18T03:29:26.010Z,13.39
2018-08-18T03:30:26.078Z,13.41
2018-08-18T03:31:25.957Z,13.44
2018-08-18T03:32:25.995Z,13.39
2018-08-18T03:33:25.926Z,13.36
2018-08-18T03:34:25.904Z,13.38
2018-08-18T03:35:25.863Z,13.39
2018-08-18T03:36:25.926Z,13.47
2018-08-18T03:38:13.074Z,13.32
2018-08-18T03:39:13.029Z,13.43
2018-08-18T03:40:12.984Z,13.31
2018-08-18T03:41:13.048Z,13.36
2018-08-18T03:42:12.908Z,13.35
2018-08-18T03:43:12.957Z,13.27
2018-08-18T03:44:12.869Z,13.39
2018-08-18T03:45:12.859Z,13.32
2018-08-18T03:46:12.813Z,13.28
2018-08-18T03:47:12.890Z,13.29
2018-08-18T03:48:12.782Z,13.29
2018-08-18T03:49:12.824Z,13.28
2018-08-18T03:50:12.708Z,13.25
2018-08-18T03:51:12.706Z,13.38
2018-08-18T03:52:12.674Z,13.35
2018-08-18T03:53:12.728Z,13.27
2018-08-18T03:54:12.616Z,13.41
2018-08-18T03:55:12.642Z,13.31
2018-08-18T03:56:12.577Z,13.31
2018-08-18T03:57:12.646Z,13.29
2018-08-18T03:58:12.524Z,13.19
2018-08-18T03:59:12.590Z,13.29
2018-08-18T04:00:12.464Z,13.31
2018-08-18T04:01:12.470Z,13.31
2018-08-18T04:02:12.421Z,13.32
2018-08-18T04:03:12.485Z,13.65
2018-08-18T04:04:12.369Z,13.96
2018-08-18T04:05:12.409Z,14.29
2018-08-18T04:06:12.320Z,14.45
2018-08-18T04:07:12.308Z,14.42
2018-08-18T04:08:12.273Z,14.38
2018-08-18T04:09:12.366Z,14.29
2018-08-18T04:10:12.239Z,14.16
2018-08-18T04:11:13.242Z,14.16
2018-08-18T04:12:12.179Z,14.01
2018-08-18T04:13:12.233Z,13.91
2018-08-18T04:14:12.129Z,13.84
2018-08-18T04:15:12.148Z,13.72
2018-08-18T04:16:12.077Z,13.65
2018-08-18T04:17:12.178Z,13.63
2018-08-18T04:18:12.025Z,13.53
2018-08-18T04:19:13.095Z,13.39
2018-08-18T04:20:11.992Z,13.27
2018-08-18T04:21:12.179Z,13.31
2018-08-18T04:22:11.962Z,13.19
2018-08-18T04:23:11.919Z,13.17
2018-08-18T04:24:11.881Z,13.09
2018-08-18T04:25:12.920Z,13.09
2018-08-18T04:26:11.842Z,13.01
2018-08-18T04:27:11.820Z,12.92
2018-08-18T04:28:11.775Z,12.94
2018-08-18T04:29:11.756Z,12.88
2018-08-18T04:30:11.734Z,12.91
2018-08-18T04:31:11.743Z,12.84
2018-08-18T04:32:11.687Z,12.81
2018-08-18T04:33:11.662Z,12.80
2018-08-18T04:34:11.639Z,12.76
2018-08-18T04:35:11.640Z,12.69
2018-08-18T04:36:11.589Z,12.76
2018-08-18T04:37:11.566Z,12.88
2018-08-18T04:38:11.540Z,12.73
2018-08-18T04:39:11.515Z,12.85
2018-08-18T04:40:11.494Z,12.85
2018-08-18T04:41:11.465Z,12.80
2018-08-18T04:42:11.449Z,12.84
2018-08-18T04:43:11.423Z,12.81
2018-08-18T04:44:11.384Z,12.80
2018-08-18T04:45:11.373Z,12.81
2018-08-18T04:46:11.351Z,12.87
2018-08-18T04:47:11.329Z,12.87
2018-08-18T04:48:11.316Z,12.99
2018-08-18T04:49:11.267Z,12.95
2018-08-18T04:50:11.239Z,12.99
2018-08-18T04:51:11.218Z,13.01
2018-08-18T04:52:11.183Z,12.96
2018-08-18T04:53:11.164Z,12.99
2018-08-18T04:54:11.141Z,12.96
2018-08-18T04:55:11.122Z,13.07
2018-08-18T04:56:11.084Z,13.06
2018-08-18T04:57:11.069Z,13.06
2018-08-18T04:58:11.042Z,13.13
2018-08-18T04:59:11.042Z,13.09
2018-08-18T05:01:02.683Z,13.04
2018-08-18T05:02:02.627Z,13.04
2018-08-18T05:03:02.597Z,13.04
2018-08-18T05:04:02.572Z,13.03
2018-08-18T05:05:02.556Z,12.99
2018-08-18T05:06:02.534Z,13.03
2018-08-18T05:07:02.500Z,13.04
2018-08-18T05:08:03.480Z,13.01
2018-08-18T05:09:02.442Z,13.09
2018-08-18T05:10:02.421Z,13.19
2018-08-18T05:11:02.402Z,13.09
2018-08-18T05:12:02.383Z,13.13
2018-08-18T05:13:02.347Z,13.04
2018-08-18T05:14:02.323Z,13.07
2018-08-18T05:15:02.297Z,13.13
2018-08-18T05:16:02.283Z,13.06
2018-08-18T05:17:02.240Z,13.06
2018-08-18T05:18:03.242Z,13.21
2018-08-18T05:19:02.311Z,13.19
2018-08-18T05:20:03.206Z,13.10
2018-08-18T05:21:02.163Z,13.16
2018-08-18T05:22:02.147Z,13.17
2018-08-18T05:23:02.118Z,13.10
2018-08-18T05:24:02.103Z,13.22
2018-08-18T05:25:02.053Z,13.22
2018-08-18T05:26:02.039Z,13.27
2018-08-18T05:27:02.006Z,13.27
2018-08-18T05:28:01.990Z,13.39
2018-08-18T05:29:52.400Z,13.38
2018-08-18T05:30:52.349Z,13.38
2018-08-18T05:31:52.326Z,13.48
2018-08-18T05:32:52.293Z,13.48
2018-08-18T05:33:52.268Z,13.48
2018-08-18T05:34:54.259Z,13.59
2018-08-18T05:35:52.223Z,13.65
2018-08-18T05:36:52.225Z,13.65
2018-08-18T05:37:52.172Z,13.71
2018-08-18T05:38:52.147Z,13.69
2018-08-18T05:39:52.131Z,13.73
2018-08-18T05:40:52.101Z,13.81
2018-08-18T05:41:52.074Z,13.90
2018-08-18T05:42:52.052Z,13.88
2018-08-18T05:43:52.024Z,13.99
2018-08-18T05:44:52.009Z,13.93
2018-08-18T05:45:51.974Z,14.01
2018-08-18T05:46:52.969Z,14.05
2018-08-18T05:47:51.927Z,14.05
2018-08-18T05:48:51.904Z,14.11
2018-08-18T05:49:51.954Z,14.20
2018-08-18T05:50:52.100Z,14.11
2018-08-18T05:51:51.829Z,14.26
2018-08-18T05:52:51.912Z,14.16
2018-08-18T05:53:51.774Z,14.23
2018-08-18T05:54:51.747Z,14.35
2018-08-18T05:55:51.729Z,14.26
2018-08-18T05:56:51.706Z,14.36
2018-08-18T05:57:51.667Z,14.27
2018-08-18T05:58:51.647Z,14.38
2018-08-18T05:59:51.620Z,14.34
2018-08-18T06:00:51.594Z,14.38
2018-08-18T06:01:51.573Z,14.30
2018-08-18T06:02:51.564Z,14.39
2018-08-18T06:03:51.524Z,14.36
2018-08-18T06:04:52.525Z,14.45
2018-08-18T06:05:51.500Z,14.53
2018-08-18T06:06:51.464Z,14.56
2018-08-18T06:07:51.445Z,14.53
2018-08-18T06:08:52.402Z,14.60
2018-08-18T06:09:51.373Z,14.57
2018-08-18T06:10:51.344Z,14.53
2018-08-18T06:11:51.350Z,14.64
2018-08-18T06:12:51.304Z,14.64
2018-08-18T06:13:51.268Z,14.67
2018-08-18T06:14:51.255Z,14.71
2018-08-18T06:15:51.222Z,14.74
2018-08-18T06:16:52.787Z,14.87
2018-08-18T06:17:51.183Z,14.82
2018-08-18T06:18:51.153Z,14.79
2018-08-18T06:19:51.130Z,14.83
2018-08-18T06:20:51.099Z,14.82
2018-08-18T06:22:37.092Z,14.95
2018-08-18T06:23:36.972Z,14.91
2018-08-18T06:24:36.968Z,14.91
2018-08-18T06:25:36.931Z,14.95
2018-08-18T06:26:36.904Z,15.03
2018-08-18T06:27:36.894Z,14.95
2018-08-18T06:28:36.846Z,15.03
2018-08-18T06:29:36.885Z,15.05
2018-08-18T06:30:36.803Z,15.12
2018-08-18T06:31:36.784Z,15.07
2018-08-18T06:32:36.750Z,15.19
2018-08-18T06:33:36.733Z,15.20
2018-08-18T06:34:36.772Z,15.15
2018-08-18T06:35:36.683Z,15.20
2018-08-18T06:36:36.648Z,15.25
2018-08-18T06:37:36.636Z,15.25
2018-08-18T06:38:36.620Z,15.35
2018-08-18T06:39:36.582Z,15.40
2018-08-18T06:40:36.571Z,15.51
2018-08-18T06:41:36.642Z,15.46
2018-08-18T06:42:36.505Z,15.56
2018-08-18T06:43:36.477Z,15.55
2018-08-18T06:44:36.455Z,15.55
2018-08-18T06:45:36.434Z,15.66
2018-08-18T06:46:36.401Z,15.66
2018-08-18T06:47:36.384Z,15.67
2018-08-18T06:48:36.373Z,15.78
2018-08-18T06:49:36.369Z,15.74
2018-08-18T06:50:36.341Z,15.80
2018-08-18T06:51:36.343Z,15.84
2018-08-18T06:52:36.284Z,15.93
2018-08-18T06:53:36.235Z,15.92
2018-08-18T06:54:36.224Z,16.07
2018-08-18T06:55:36.187Z,16.08
2018-08-18T06:56:36.169Z,16.13
2018-08-18T06:57:36.150Z,16.25
2018-08-18T06:58:36.105Z,16.29
2018-08-18T06:59:36.093Z,16.32
2018-08-18T07:00:36.069Z,16.30
2018-08-18T07:01:36.056Z,16.37
2018-08-18T07:02:36.014Z,16.40
2018-08-18T07:03:35.994Z,16.45
2018-08-18T07:04:35.976Z,16.41
2018-08-18T07:05:35.941Z,16.50
2018-08-18T07:06:35.927Z,16.55
2018-08-18T07:07:35.904Z,16.65
2018-08-18T07:08:35.862Z,16.62
2018-08-18T07:09:35.843Z,16.63
2018-08-18T07:10:35.821Z,16.65
2018-08-18T07:11:35.792Z,16.54
2018-08-18T07:12:35.761Z,16.69
2018-08-18T07:13:35.744Z,16.70
2018-08-18T07:14:35.716Z,16.77
2018-08-18T07:15:35.701Z,16.78
2018-08-18T07:16:35.666Z,16.77
2018-08-18T07:17:35.660Z,16.84
2018-08-18T07:18:35.632Z,16.85
2018-08-18T07:19:36.605Z,16.92
2018-08-18T07:20:35.571Z,16.90
2018-08-18T07:21:35.598Z,16.98
2018-08-18T07:22:35.522Z,17.02
2018-08-18T07:23:35.500Z,16.95
2018-08-18T07:24:35.492Z,17.00
2018-08-18T07:25:35.447Z,17.09
2018-08-18T07:26:35.418Z,17.10
2018-08-18T07:27:35.401Z,17.12
2018-08-18T07:28:35.528Z,17.17
2018-08-18T07:29:35.422Z,17.28
2018-08-18T07:30:35.337Z,17.32
2018-08-18T07:31:35.309Z,17.43
2018-08-18T07:32:35.272Z,17.38
2018-08-18T07:33:35.269Z,17.49
2018-08-18T07:34:35.225Z,17.42
2018-08-18T07:35:35.220Z,17.46
2018-08-18T07:36:35.184Z,17.46
2018-08-18T07:37:36.227Z,17.53
2018-08-18T07:38:35.126Z,17.70
2018-08-18T07:39:35.116Z,17.68
2018-08-18T07:40:35.075Z,17.83
2018-08-18T07:41:35.068Z,17.79
2018-08-18T07:42:35.026Z,17.89
2018-08-18T07:43:37.014Z,17.76
2018-08-18T07:44:34.996Z,17.80
2018-08-18T07:45:34.953Z,17.94
2018-08-18T07:46:34.931Z,17.96
2018-08-18T07:47:34.916Z,18.09
2018-08-18T07:48:34.893Z,18.05
2018-08-18T07:50:22.229Z,18.14
2018-08-18T07:51:22.174Z,18.19
2018-08-18T07:52:22.149Z,18.20
2018-08-18T07:53:22.633Z,18.19
2018-08-18T07:54:22.155Z,18.28
2018-08-18T07:55:22.085Z,18.28
2018-08-18T07:56:22.498Z,18.39
2018-08-18T07:57:22.040Z,18.47
2018-08-18T07:58:22.005Z,18.46
2018-08-18T07:59:21.980Z,18.46
2018-08-18T08:00:21.985Z,18.50
2018-08-18T08:01:21.932Z,18.53
2018-08-18T08:02:22.901Z,18.60
2018-08-18T08:03:21.889Z,18.65
2018-08-18T08:04:22.852Z,18.64
2018-08-18T08:05:21.830Z,18.72
2018-08-18T08:06:21.815Z,18.74
2018-08-18T08:07:21.784Z,18.74
2018-08-18T08:08:21.791Z,18.74
2018-08-18T08:09:21.728Z,18.78
2018-08-18T08:10:21.704Z,18.83
2018-08-18T08:11:21.679Z,18.89
2018-08-18T08:12:21.673Z,18.89
2018-08-18T08:13:21.622Z,19.01
2018-08-18T08:14:21.613Z,19.09
2018-08-18T08:15:21.577Z,18.94
2018-08-18T08:16:21.561Z,19.13
2018-08-18T08:17:21.526Z,19.15
2018-08-18T08:18:21.613Z,19.23
2018-08-18T08:19:21.501Z,19.21
2018-08-18T08:20:21.471Z,19.17
2018-08-18T08:21:21.435Z,19.27
2018-08-18T08:22:21.423Z,19.32
2018-08-18T08:23:21.388Z,19.32
2018-08-18T08:24:21.373Z,19.34
2018-08-18T08:25:21.337Z,19.21
2018-08-18T08:26:21.317Z,19.34
2018-08-18T08:27:21.291Z,19.38
2018-08-18T08:28:21.266Z,19.45
2018-08-18T08:29:21.244Z,19.38
2018-08-18T08:30:21.213Z,19.39
2018-08-18T08:31:21.188Z,19.46
2018-08-18T08:32:21.166Z,19.53
2018-08-18T08:33:21.132Z,19.67
2018-08-18T08:34:21.128Z,19.55
2018-08-18T08:35:21.088Z,19.58
2018-08-18T08:36:21.068Z,19.70
2018-08-18T08:37:21.039Z,19.57
2018-08-18T08:38:21.021Z,19.67
2018-08-18T08:39:20.996Z,19.71
2018-08-18T08:40:20.968Z,19.76
2018-08-18T08:41:20.932Z,19.80
2018-08-18T08:42:20.943Z,19.87
2018-08-18T08:43:20.963Z,20.04
2018-08-18T08:44:20.868Z,20.05
2018-08-18T08:45:20.837Z,20.01
2018-08-18T08:46:20.839Z,20.05
2018-08-18T08:47:20.801Z,20.13
2018-08-18T08:48:20.789Z,20.27
2018-08-18T08:49:20.743Z,20.30
2018-08-18T08:50:20.724Z,20.33
2018-08-18T08:51:20.694Z,20.34
2018-08-18T08:52:20.674Z,20.46
2018-08-18T08:53:20.673Z,20.50
2018-08-18T08:54:07.282Z,20.44
2018-08-18T08:55:07.220Z,20.41
2018-08-18T08:56:07.221Z,20.56
2018-08-18T08:57:07.161Z,20.56
2018-08-18T08:58:07.141Z,20.51
2018-08-18T08:59:07.116Z,20.60
2018-08-18T09:00:07.081Z,20.56
2018-08-18T09:01:07.120Z,20.66
2018-08-18T09:02:07.042Z,20.79
2018-08-18T09:03:07.027Z,20.75
2018-08-18T09:04:06.993Z,20.81
2018-08-18T09:05:06.966Z,20.85
2018-08-18T09:06:06.941Z,20.83
2018-08-18T09:07:06.919Z,21.00
2018-08-18T09:08:06.908Z,20.98
2018-08-18T09:09:06.870Z,21.06
2018-08-18T09:10:06.864Z,21.01
2018-08-18T09:11:06.860Z,21.06
2018-08-18T09:12:06.786Z,21.09
2018-08-18T09:13:06.774Z,21.11
2018-08-18T09:14:06.747Z,21.19
2018-08-18T09:15:06.732Z,21.21
2018-08-18T09:16:06.712Z,21.40
2018-08-18T09:17:06.673Z,21.37
2018-08-18T09:18:06.646Z,21.24
2018-08-18T09:19:06.620Z,21.26
2018-08-18T09:20:06.590Z,21.21
2018-08-18T09:21:06.573Z,21.16
2018-08-18T09:22:06.538Z,21.22
2018-08-18T09:23:06.550Z,21.42
2018-08-18T09:24:06.521Z,21.56
2018-08-18T09:25:07.485Z,21.63
2018-08-18T09:26:06.451Z,21.73
2018-08-18T09:27:06.426Z,21.83
2018-08-18T09:28:06.397Z,21.94
2018-08-18T09:29:06.389Z,22.01
2018-08-18T09:30:06.345Z,21.96
2018-08-18T09:31:06.338Z,21.85
2018-08-18T09:32:06.298Z,22.04
2018-08-18T09:33:06.281Z,22.01
2018-08-18T09:34:06.245Z,22.06
2018-08-18T09:35:06.232Z,22.09
2018-08-18T09:36:06.202Z,22.23
2018-08-18T09:37:06.190Z,22.26
2018-08-18T09:38:06.160Z,22.35
2018-08-18T09:39:07.140Z,22.48
2018-08-18T09:40:52.059Z,22.66
2018-08-18T09:41:52.028Z,22.88
2018-08-18T09:42:52.000Z,22.96
2018-08-18T09:43:52.964Z,23.12
2018-08-18T09:44:51.937Z,23.01
2018-08-18T09:45:51.915Z,23.00
2018-08-18T09:46:51.888Z,22.96
2018-08-18T09:47:51.860Z,23.09
2018-08-18T09:48:51.841Z,23.11
2018-08-18T09:49:51.829Z,22.96
2018-08-18T09:50:51.783Z,22.88
2018-08-18T09:51:51.796Z,22.99
2018-08-18T09:52:51.746Z,22.94
2018-08-18T09:53:51.719Z,23.07
2018-08-18T09:54:51.770Z,23.16
2018-08-18T09:55:52.672Z,23.18
2018-08-18T09:56:51.646Z,23.15
2018-08-18T09:57:51.621Z,23.15
2018-08-18T09:58:51.594Z,22.96
2018-08-18T09:59:51.585Z,22.88
2018-08-18T10:00:51.538Z,22.89
2018-08-18T10:01:51.522Z,22.89
2018-08-18T10:02:51.503Z,23.06
2018-08-18T10:03:52.484Z,23.16
2018-08-18T10:04:51.452Z,23.35
2018-08-18T10:05:52.465Z,23.32
2018-08-18T10:06:51.406Z,23.35
2018-08-18T10:07:52.386Z,23.49
2018-08-18T10:08:51.558Z,23.39
2018-08-18T10:09:53.341Z,23.49
2018-08-18T10:10:51.317Z,23.34
2018-08-18T10:11:51.284Z,23.29
2018-08-18T10:12:51.262Z,23.14
2018-08-18T10:13:51.243Z,23.14
2018-08-18T10:14:51.209Z,22.89
2018-08-18T10:15:51.195Z,22.93
2018-08-18T10:16:51.182Z,22.78
2018-08-18T10:17:51.133Z,22.82
2018-08-18T10:18:51.110Z,22.88
2018-08-18T10:19:51.087Z,22.86
2018-08-18T10:20:51.067Z,22.91
2018-08-18T10:21:51.053Z,23.04
2018-08-18T10:22:51.018Z,23.21
2018-08-18T10:23:51.032Z,23.37
2018-08-18T10:24:50.985Z,23.47
2018-08-18T10:25:50.952Z,23.62
2018-08-18T10:26:50.973Z,23.57
2018-08-18T10:27:50.900Z,23.78
2018-08-18T10:28:50.864Z,23.64
2018-08-18T10:29:50.872Z,23.71
2018-08-18T10:30:50.826Z,23.71
2018-08-18T10:32:37.281Z,23.72
2018-08-18T10:33:37.261Z,23.68
2018-08-18T10:34:37.214Z,23.62
2018-08-18T10:35:37.182Z,23.78
2018-08-18T10:36:37.155Z,23.90
2018-08-18T10:37:37.141Z,23.97
2018-08-18T10:38:37.108Z,24.14
2018-08-18T10:39:37.090Z,24.19
2018-08-18T10:40:37.069Z,24.18
2018-08-18T10:41:37.033Z,24.34
2018-08-18T10:42:37.033Z,24.34
2018-08-18T10:43:37.009Z,24.49
2018-08-18T10:44:37.172Z,24.53
2018-08-18T10:45:36.939Z,24.19
2018-08-18T10:46:36.943Z,24.19
2018-08-18T10:47:36.901Z,24.24
2018-08-18T10:48:36.868Z,24.14
2018-08-18T10:49:36.859Z,23.97
2018-08-18T10:50:36.834Z,24.11
2018-08-18T10:51:22.594Z,23.97
2018-08-18T10:52:22.538Z,23.97
2018-08-18T10:53:22.525Z,23.94
2018-08-18T10:54:22.496Z,24.00
2018-08-18T10:55:22.481Z,23.93
2018-08-18T10:56:22.472Z,24.00
2018-08-18T10:57:22.435Z,23.82
2018-08-18T10:58:22.410Z,23.64
2018-08-18T10:59:22.377Z,23.47
2018-08-18T11:00:22.370Z,23.42
2018-08-18T11:01:22.328Z,23.49
2018-08-18T11:02:22.306Z,23.49
2018-08-18T11:03:22.320Z,23.50
2018-08-18T11:04:22.262Z,23.52
2018-08-18T11:05:22.235Z,23.49
2018-08-18T11:06:22.211Z,23.63
2018-08-18T11:07:22.202Z,23.56
2018-08-18T11:08:22.180Z,23.74
2018-08-18T11:09:22.139Z,23.82
2018-08-18T11:10:22.112Z,23.63
2018-08-18T11:11:22.101Z,23.53
2018-08-18T11:12:22.061Z,23.60
2018-08-18T11:13:22.058Z,23.67
2018-08-18T11:14:22.026Z,23.59
2018-08-18T11:15:22.009Z,23.69
2018-08-18T11:16:21.972Z,23.78
2018-08-18T11:17:21.959Z,23.97
2018-08-18T11:18:21.928Z,23.97
2018-08-18T11:19:21.915Z,24.11
2018-08-18T11:20:21.881Z,24.24
2018-08-18T11:21:21.860Z,24.42
2018-08-18T11:22:21.845Z,24.45
2018-08-18T11:23:21.824Z,24.36
2018-08-18T11:24:21.798Z,24.27
2018-08-18T11:25:08.200Z,24.27
2018-08-18T11:26:08.130Z,24.15
2018-08-18T11:27:08.112Z,24.29
2018-08-18T11:28:08.102Z,24.11
2018-08-18T11:29:08.063Z,23.79
2018-08-18T11:30:08.038Z,23.84
2018-08-18T11:31:08.010Z,23.97
2018-08-18T11:32:07.990Z,24.11
2018-08-18T11:33:07.976Z,24.29
2018-08-18T11:34:12.918Z,24.52
2018-08-18T11:35:07.945Z,24.31
2018-08-18T11:36:08.903Z,24.49
2018-08-18T11:37:07.879Z,24.56
2018-08-18T11:38:07.849Z,24.60
2018-08-18T11:39:07.830Z,24.68
2018-08-18T11:40:07.836Z,24.55
2018-08-18T11:41:07.790Z,24.45
2018-08-18T11:42:07.766Z,24.56
2018-08-18T11:43:07.737Z,24.71
2018-08-18T11:44:07.717Z,24.83
2018-08-18T11:45:07.699Z,25.11
2018-08-18T11:46:07.668Z,25.11
2018-08-18T11:47:07.681Z,25.23
2018-08-18T11:48:07.642Z,25.23
2018-08-18T11:49:07.605Z,25.14
2018-08-18T11:50:07.593Z,25.17
2018-08-18T11:51:07.568Z,25.34
2018-08-18T11:52:07.566Z,25.39
2018-08-18T11:53:07.590Z,25.49
2018-08-18T11:54:07.512Z,25.51
2018-08-18T11:55:07.664Z,25.29
2018-08-18T11:56:07.479Z,25.22
2018-08-18T11:57:07.480Z,25.04
2018-08-18T11:58:07.398Z,25.08
2018-08-18T11:59:07.367Z,25.01
2018-08-18T12:00:53.698Z,25.14
2018-08-18T12:01:53.692Z,25.20
2018-08-18T12:02:53.612Z,25.24
2018-08-18T12:03:53.576Z,25.34
2018-08-18T12:04:53.572Z,25.19
2018-08-18T12:05:53.534Z,25.11
2018-08-18T12:06:54.512Z,25.17
2018-08-18T12:07:53.482Z,25.19
2018-08-18T12:08:53.467Z,25.05
2018-08-18T12:09:53.440Z,25.09
2018-08-18T12:10:53.723Z,24.89
2018-08-18T12:11:53.510Z,25.01
2018-08-18T12:12:53.503Z,25.09
2018-08-18T12:13:53.406Z,25.22
2018-08-18T12:14:53.367Z,25.29
2018-08-18T12:15:53.312Z,25.02
2018-08-18T12:16:53.280Z,24.93
2018-08-18T12:17:53.241Z,24.83
2018-08-18T12:18:53.233Z,25.01
2018-08-18T12:19:53.213Z,25.08
2018-08-18T12:20:53.185Z,25.34
2018-08-18T12:21:53.159Z,25.38
2018-08-18T12:22:53.131Z,25.53
2018-08-18T12:23:53.107Z,25.42
2018-08-18T12:24:53.089Z,25.45
2018-08-18T12:25:53.057Z,25.44
2018-08-18T12:26:53.068Z,25.45
2018-08-18T12:27:53.017Z,25.51
2018-08-18T12:28:54.007Z,25.51
2018-08-18T12:29:53.112Z,25.72
2018-08-18T12:30:52.966Z,25.82
2018-08-18T12:31:52.934Z,25.82
2018-08-18T12:32:52.910Z,25.54
2018-08-18T12:33:52.884Z,25.48
2018-08-18T12:34:52.866Z,25.48
2018-08-18T12:35:52.838Z,25.31
2018-08-18T12:36:53.847Z,25.08
2018-08-18T12:37:52.791Z,25.09
2018-08-18T12:38:52.783Z,25.17
2018-08-18T12:39:52.745Z,25.38
2018-08-18T12:40:52.744Z,25.44
2018-08-18T12:41:52.695Z,25.54
2018-08-18T12:42:52.679Z,25.45
2018-08-18T12:43:52.661Z,25.22
2018-08-18T12:45:42.860Z,24.87
2018-08-18T12:46:43.812Z,24.74
2018-08-18T12:47:42.779Z,24.61
2018-08-18T12:48:42.764Z,24.68
2018-08-18T12:49:42.801Z,24.80
2018-08-18T12:50:42.712Z,25.02
2018-08-18T12:51:42.685Z,25.09
2018-08-18T12:52:42.668Z,25.08
2018-08-18T12:53:42.639Z,25.29
2018-08-18T12:54:42.615Z,25.49
2018-08-18T12:55:42.609Z,25.59
2018-08-18T12:56:42.607Z,25.67
2018-08-18T12:57:42.555Z,25.66
2018-08-18T12:58:42.693Z,25.79
2018-08-18T12:59:42.509Z,25.66
2018-08-18T13:00:42.500Z,25.57